sensor_id;sensor_type;location;lat;lon;timestamp;temperature;humidity
4962;DHT22;2496;52.468;13.342;2024-03-17T00:00:48;6.10;99.90
4962;DHT22;2496;52.468;13.342;2024-03-17T00:03:16;6.10;99.90
4962;DHT22;2496;52.468;13.342;2024-03-17T00:05:42;6.10;99.90
4962;DHT22;2496;52.468;13.342;2024-03-17T00:08:10;6.00;99.90
4962;DHT22;2496;52.468;13.342;2024-03-17T00:10:36;6.00;99.90
4962;DHT22;2496;52.468;13.342;2024-03-17T00:13:04;6.00;99.90
4962;DHT22;2496;52.468;13.342;2024-03-17T00:15:30;5.90;99.90
4962;DHT22;2496;52.468;13.342;2024-03-17T00:17:58;5.90;99.90
4962;DHT22;2496;52.468;13.342;2024-03-17T00:20:24;5.90;99.90
4962;DHT22;2496;52.468;13.342;2024-03-17T00:22:51;6.00;99.90
4962;DHT22;2496;52.468;13.342;2024-03-17T00:25:18;6.00;99.90
4962;DHT22;2496;52.468;13.342;2024-03-17T00:27:45;6.00;99.90
4962;DHT22;2496;52.468;13.342;2024-03-17T00:30:13;5.90;99.90
4962;DHT22;2496;52.468;13.342;2024-03-17T00:32:42;5.90;99.90
4962;DHT22;2496;52.468;13.342;2024-03-17T00:35:09;5.90;99.90
4962;DHT22;2496;52.468;13.342;2024-03-17T00:37:39;5.90;99.90
4962;DHT22;2496;52.468;13.342;2024-03-17T00:40:07;5.80;99.90
4962;DHT22;2496;52.468;13.342;2024-03-17T00:42:38;5.80;99.90
4962;DHT22;2496;52.468;13.342;2024-03-17T00:45:05;5.80;99.90
4962;DHT22;2496;52.468;13.342;2024-03-17T00:47:32;5.80;99.90
4962;DHT22;2496;52.468;13.342;2024-03-17T00:49:58;5.80;99.90
4962;DHT22;2496;52.468;13.342;2024-03-17T00:52:25;5.80;99.90
4962;DHT22;2496;52.468;13.342;2024-03-17T00:54:53;5.80;99.90
4962;DHT22;2496;52.468;13.342;2024-03-17T00:57:20;5.80;99.90
4962;DHT22;2496;52.468;13.342;2024-03-17T00:59:49;5.70;99.90
4962;DHT22;2496;52.468;13.342;2024-03-17T01:02:18;5.70;99.90
4962;DHT22;2496;52.468;13.342;2024-03-17T01:04:44;5.60;99.90
4962;DHT22;2496;52.468;13.342;2024-03-17T01:07:12;5.60;99.90
4962;DHT22;2496;52.468;13.342;2024-03-17T01:09:38;5.60;99.90
4962;DHT22;2496;52.468;13.342;2024-03-17T01:12:05;5.60;99.90
4962;DHT22;2496;52.468;13.342;2024-03-17T01:14:31;5.60;99.90
4962;DHT22;2496;52.468;13.342;2024-03-17T01:17:00;5.60;99.90
4962;DHT22;2496;52.468;13.342;2024-03-17T01:19:27;5.60;99.90
4962;DHT22;2496;52.468;13.342;2024-03-17T01:21:54;5.50;99.90
4962;DHT22;2496;52.468;13.342;2024-03-17T01:24:24;5.50;99.90
4962;DHT22;2496;52.468;13.342;2024-03-17T01:26:50;5.50;99.90
4962;DHT22;2496;52.468;13.342;2024-03-17T01:29:18;5.50;99.90
4962;DHT22;2496;52.468;13.342;2024-03-17T01:31:44;5.50;99.90
4962;DHT22;2496;52.468;13.342;2024-03-17T01:34:13;5.50;99.90
4962;DHT22;2496;52.468;13.342;2024-03-17T01:36:39;5.50;99.90
4962;DHT22;2496;52.468;13.342;2024-03-17T01:39:06;5.50;99.90
4962;DHT22;2496;52.468;13.342;2024-03-17T01:41:32;5.50;99.90
4962;DHT22;2496;52.468;13.342;2024-03-17T01:43:59;5.40;99.90
4962;DHT22;2496;52.468;13.342;2024-03-17T01:46:25;5.40;99.90
4962;DHT22;2496;52.468;13.342;2024-03-17T01:48:53;5.40;99.90
4962;DHT22;2496;52.468;13.342;2024-03-17T01:51:21;5.40;99.90
4962;DHT22;2496;52.468;13.342;2024-03-17T01:53:49;5.30;99.90
4962;DHT22;2496;52.468;13.342;2024-03-17T01:56:16;5.30;99.90
4962;DHT22;2496;52.468;13.342;2024-03-17T01:58:44;5.30;99.90
4962;DHT22;2496;52.468;13.342;2024-03-17T02:01:11;5.30;99.90
4962;DHT22;2496;52.468;13.342;2024-03-17T02:03:40;5.30;99.90
4962;DHT22;2496;52.468;13.342;2024-03-17T02:06:06;5.20;99.90
4962;DHT22;2496;52.468;13.342;2024-03-17T02:08:47;5.20;99.90
4962;DHT22;2496;52.468;13.342;2024-03-17T02:11:25;5.20;99.90
4962;DHT22;2496;52.468;13.342;2024-03-17T02:13:52;5.10;99.90
4962;DHT22;2496;52.468;13.342;2024-03-17T02:16:18;5.10;99.90
4962;DHT22;2496;52.468;13.342;2024-03-17T02:18:46;5.10;99.90
4962;DHT22;2496;52.468;13.342;2024-03-17T02:21:12;5.10;99.90
4962;DHT22;2496;52.468;13.342;2024-03-17T02:23:41;5.00;99.90
4962;DHT22;2496;52.468;13.342;2024-03-17T02:26:07;5.00;99.90
4962;DHT22;2496;52.468;13.342;2024-03-17T02:28:41;5.00;99.90
4962;DHT22;2496;52.468;13.342;2024-03-17T02:31:09;5.10;99.90
4962;DHT22;2496;52.468;13.342;2024-03-17T02:33:37;5.00;99.90
4962;DHT22;2496;52.468;13.342;2024-03-17T02:36:05;5.00;99.90
4962;DHT22;2496;52.468;13.342;2024-03-17T02:38:33;5.00;99.90
4962;DHT22;2496;52.468;13.342;2024-03-17T02:41:19;5.00;99.90
4962;DHT22;2496;52.468;13.342;2024-03-17T02:43:47;5.00;99.90
4962;DHT22;2496;52.468;13.342;2024-03-17T02:46:15;4.90;99.90
4962;DHT22;2496;52.468;13.342;2024-03-17T02:48:43;4.90;99.90
4962;DHT22;2496;52.468;13.342;2024-03-17T02:51:13;4.90;99.90
4962;DHT22;2496;52.468;13.342;2024-03-17T02:53:41;4.90;99.90
4962;DHT22;2496;52.468;13.342;2024-03-17T02:56:08;4.80;99.90
4962;DHT22;2496;52.468;13.342;2024-03-17T02:58:37;4.80;99.90
4962;DHT22;2496;52.468;13.342;2024-03-17T03:01:05;4.70;99.90
4962;DHT22;2496;52.468;13.342;2024-03-17T03:03:32;4.70;99.90
4962;DHT22;2496;52.468;13.342;2024-03-17T03:05:59;4.70;99.90
4962;DHT22;2496;52.468;13.342;2024-03-17T03:08:30;4.60;99.90
4962;DHT22;2496;52.468;13.342;2024-03-17T03:10:57;4.60;99.90
4962;DHT22;2496;52.468;13.342;2024-03-17T03:13:24;4.60;99.90
4962;DHT22;2496;52.468;13.342;2024-03-17T03:15:52;4.60;99.90
4962;DHT22;2496;52.468;13.342;2024-03-17T03:18:19;4.60;99.90
4962;DHT22;2496;52.468;13.342;2024-03-17T03:20:50;4.60;99.90
4962;DHT22;2496;52.468;13.342;2024-03-17T03:23:18;4.60;99.90
4962;DHT22;2496;52.468;13.342;2024-03-17T03:25:45;4.60;99.90
4962;DHT22;2496;52.468;13.342;2024-03-17T03:28:13;4.60;99.90
4962;DHT22;2496;52.468;13.342;2024-03-17T03:30:40;4.60;99.90
4962;DHT22;2496;52.468;13.342;2024-03-17T03:33:09;4.60;99.90
4962;DHT22;2496;52.468;13.342;2024-03-17T03:35:36;4.60;99.90
4962;DHT22;2496;52.468;13.342;2024-03-17T03:38:03;4.60;99.90
4962;DHT22;2496;52.468;13.342;2024-03-17T03:40:30;4.60;99.90
4962;DHT22;2496;52.468;13.342;2024-03-17T03:42:58;4.50;99.90
4962;DHT22;2496;52.468;13.342;2024-03-17T03:45:25;4.50;99.90
4962;DHT22;2496;52.468;13.342;2024-03-17T03:47:52;4.50;99.90
4962;DHT22;2496;52.468;13.342;2024-03-17T03:50:21;4.50;99.90
4962;DHT22;2496;52.468;13.342;2024-03-17T03:52:49;4.50;99.90
4962;DHT22;2496;52.468;13.342;2024-03-17T03:55:18;4.40;99.90
4962;DHT22;2496;52.468;13.342;2024-03-17T03:57:45;4.40;99.90
4962;DHT22;2496;52.468;13.342;2024-03-17T04:00:14;4.40;99.90
4962;DHT22;2496;52.468;13.342;2024-03-17T04:02:42;4.30;99.90
4962;DHT22;2496;52.468;13.342;2024-03-17T04:05:09;4.40;99.90
4962;DHT22;2496;52.468;13.342;2024-03-17T04:07:38;4.40;99.90
4962;DHT22;2496;52.468;13.342;2024-03-17T04:10:06;4.30;99.90
4962;DHT22;2496;52.468;13.342;2024-03-17T04:12:33;4.30;99.90
4962;DHT22;2496;52.468;13.342;2024-03-17T04:15:00;4.40;99.90
4962;DHT22;2496;52.468;13.342;2024-03-17T04:17:28;4.30;99.90
4962;DHT22;2496;52.468;13.342;2024-03-17T04:19:55;4.30;99.90
4962;DHT22;2496;52.468;13.342;2024-03-17T04:22:22;4.20;99.90
4962;DHT22;2496;52.468;13.342;2024-03-17T04:24:51;4.20;99.90
4962;DHT22;2496;52.468;13.342;2024-03-17T04:27:19;4.20;99.90
4962;DHT22;2496;52.468;13.342;2024-03-17T04:29:46;4.20;99.90
4962;DHT22;2496;52.468;13.342;2024-03-17T04:32:14;4.20;99.90
4962;DHT22;2496;52.468;13.342;2024-03-17T04:34:40;4.10;99.90
4962;DHT22;2496;52.468;13.342;2024-03-17T04:37:09;4.10;99.90
4962;DHT22;2496;52.468;13.342;2024-03-17T04:39:37;4.10;99.90
4962;DHT22;2496;52.468;13.342;2024-03-17T04:42:06;4.00;99.90
4962;DHT22;2496;52.468;13.342;2024-03-17T04:44:33;4.00;99.90
4962;DHT22;2496;52.468;13.342;2024-03-17T04:47:00;4.00;99.90
4962;DHT22;2496;52.468;13.342;2024-03-17T04:49:28;4.00;99.90
4962;DHT22;2496;52.468;13.342;2024-03-17T04:51:55;4.00;99.90
4962;DHT22;2496;52.468;13.342;2024-03-17T04:54:21;3.90;99.90
4962;DHT22;2496;52.468;13.342;2024-03-17T04:56:48;4.00;99.90
4962;DHT22;2496;52.468;13.342;2024-03-17T04:59:17;3.90;99.90
4962;DHT22;2496;52.468;13.342;2024-03-17T05:01:44;3.90;99.90
4962;DHT22;2496;52.468;13.342;2024-03-17T05:04:11;3.80;99.90
4962;DHT22;2496;52.468;13.342;2024-03-17T05:06:38;3.70;99.90
4962;DHT22;2496;52.468;13.342;2024-03-17T05:09:07;3.60;99.90
4962;DHT22;2496;52.468;13.342;2024-03-17T05:11:34;3.50;99.90
4962;DHT22;2496;52.468;13.342;2024-03-17T05:14:03;3.40;99.90
4962;DHT22;2496;52.468;13.342;2024-03-17T05:16:31;3.30;99.90
4962;DHT22;2496;52.468;13.342;2024-03-17T05:18:58;3.30;99.90
4962;DHT22;2496;52.468;13.342;2024-03-17T05:21:25;3.30;99.90
4962;DHT22;2496;52.468;13.342;2024-03-17T05:23:56;3.30;99.90
4962;DHT22;2496;52.468;13.342;2024-03-17T05:26:23;3.40;99.90
4962;DHT22;2496;52.468;13.342;2024-03-17T05:28:51;3.50;99.90
4962;DHT22;2496;52.468;13.342;2024-03-17T05:31:18;3.60;99.90
4962;DHT22;2496;52.468;13.342;2024-03-17T05:33:48;3.70;99.90
4962;DHT22;2496;52.468;13.342;2024-03-17T05:36:15;3.70;99.90
4962;DHT22;2496;52.468;13.342;2024-03-17T05:38:45;3.80;99.90
4962;DHT22;2496;52.468;13.342;2024-03-17T05:41:13;3.80;99.90
4962;DHT22;2496;52.468;13.342;2024-03-17T05:43:41;3.80;99.90
4962;DHT22;2496;52.468;13.342;2024-03-17T05:46:11;3.90;99.90
4962;DHT22;2496;52.468;13.342;2024-03-17T05:48:39;3.90;99.90
4962;DHT22;2496;52.468;13.342;2024-03-17T05:51:09;3.80;99.90
4962;DHT22;2496;52.468;13.342;2024-03-17T05:53:37;3.80;99.90
4962;DHT22;2496;52.468;13.342;2024-03-17T05:56:06;3.80;99.90
4962;DHT22;2496;52.468;13.342;2024-03-17T05:58:35;3.80;99.90
4962;DHT22;2496;52.468;13.342;2024-03-17T06:01:03;3.80;99.90
4962;DHT22;2496;52.468;13.342;2024-03-17T06:03:30;3.80;99.90
4962;DHT22;2496;52.468;13.342;2024-03-17T06:05:58;3.80;99.90
4962;DHT22;2496;52.468;13.342;2024-03-17T06:08:28;3.90;99.90
4962;DHT22;2496;52.468;13.342;2024-03-17T06:10:55;3.80;99.90
4962;DHT22;2496;52.468;13.342;2024-03-17T06:13:25;3.90;99.90
4962;DHT22;2496;52.468;13.342;2024-03-17T06:15:54;3.90;99.90
4962;DHT22;2496;52.468;13.342;2024-03-17T06:18:26;3.90;99.90
4962;DHT22;2496;52.468;13.342;2024-03-17T06:20:53;3.90;99.90
4962;DHT22;2496;52.468;13.342;2024-03-17T06:23:23;3.80;99.90
4962;DHT22;2496;52.468;13.342;2024-03-17T06:25:54;3.90;99.90
4962;DHT22;2496;52.468;13.342;2024-03-17T06:28:21;3.90;99.90
4962;DHT22;2496;52.468;13.342;2024-03-17T06:30:55;4.00;99.90
4962;DHT22;2496;52.468;13.342;2024-03-17T06:33:25;3.90;99.90
4962;DHT22;2496;52.468;13.342;2024-03-17T06:35:52;3.90;99.90
4962;DHT22;2496;52.468;13.342;2024-03-17T06:38:19;3.90;99.90
4962;DHT22;2496;52.468;13.342;2024-03-17T06:40:49;3.90;99.90
4962;DHT22;2496;52.468;13.342;2024-03-17T06:43:18;3.90;99.90
4962;DHT22;2496;52.468;13.342;2024-03-17T06:45:54;4.00;99.90
4962;DHT22;2496;52.468;13.342;2024-03-17T06:48:21;4.00;99.90
4962;DHT22;2496;52.468;13.342;2024-03-17T06:50:48;4.10;99.90
4962;DHT22;2496;52.468;13.342;2024-03-17T06:53:17;4.00;99.90
4962;DHT22;2496;52.468;13.342;2024-03-17T06:55:44;4.00;99.90
4962;DHT22;2496;52.468;13.342;2024-03-17T06:58:13;4.00;99.90
4962;DHT22;2496;52.468;13.342;2024-03-17T07:00:41;4.10;99.90
4962;DHT22;2496;52.468;13.342;2024-03-17T07:03:09;4.20;99.90
4962;DHT22;2496;52.468;13.342;2024-03-17T07:05:36;4.30;99.90
4962;DHT22;2496;52.468;13.342;2024-03-17T07:08:04;4.40;99.90
4962;DHT22;2496;52.468;13.342;2024-03-17T07:10:31;4.50;99.90
4962;DHT22;2496;52.468;13.342;2024-03-17T07:12:58;4.70;99.90
4962;DHT22;2496;52.468;13.342;2024-03-17T07:15:25;4.80;99.90
4962;DHT22;2496;52.468;13.342;2024-03-17T07:17:53;4.90;99.90
4962;DHT22;2496;52.468;13.342;2024-03-17T07:20:20;4.90;99.90
4962;DHT22;2496;52.468;13.342;2024-03-17T07:22:48;5.00;99.90
4962;DHT22;2496;52.468;13.342;2024-03-17T07:25:16;5.20;99.90
4962;DHT22;2496;52.468;13.342;2024-03-17T07:27:43;5.30;99.90
4962;DHT22;2496;52.468;13.342;2024-03-17T07:30:11;5.30;99.90
4962;DHT22;2496;52.468;13.342;2024-03-17T07:32:38;5.30;99.90
4962;DHT22;2496;52.468;13.342;2024-03-17T07:35:07;5.30;99.90
4962;DHT22;2496;52.468;13.342;2024-03-17T07:37:34;5.30;99.90
4962;DHT22;2496;52.468;13.342;2024-03-17T07:40:04;5.40;99.90
4962;DHT22;2496;52.468;13.342;2024-03-17T07:42:32;5.40;99.90
4962;DHT22;2496;52.468;13.342;2024-03-17T07:44:59;5.40;99.90
4962;DHT22;2496;52.468;13.342;2024-03-17T07:47:26;5.50;99.90
4962;DHT22;2496;52.468;13.342;2024-03-17T07:50:01;5.60;99.90
4962;DHT22;2496;52.468;13.342;2024-03-17T07:52:31;5.70;99.90
4962;DHT22;2496;52.468;13.342;2024-03-17T07:54:58;5.90;99.90
4962;DHT22;2496;52.468;13.342;2024-03-17T07:57:25;6.00;99.90
4962;DHT22;2496;52.468;13.342;2024-03-17T07:59:52;6.10;99.90
4962;DHT22;2496;52.468;13.342;2024-03-17T08:02:19;6.20;99.90
4962;DHT22;2496;52.468;13.342;2024-03-17T08:04:46;6.40;99.90
4962;DHT22;2496;52.468;13.342;2024-03-17T08:07:13;6.50;99.90
4962;DHT22;2496;52.468;13.342;2024-03-17T08:09:41;6.40;99.90
4962;DHT22;2496;52.468;13.342;2024-03-17T08:12:08;6.30;99.90
4962;DHT22;2496;52.468;13.342;2024-03-17T08:14:35;6.30;99.90
4962;DHT22;2496;52.468;13.342;2024-03-17T08:17:02;6.40;99.90
4962;DHT22;2496;52.468;13.342;2024-03-17T08:19:31;6.40;99.90
4962;DHT22;2496;52.468;13.342;2024-03-17T08:21:58;6.30;99.90
4962;DHT22;2496;52.468;13.342;2024-03-17T08:24:25;6.20;99.90
4962;DHT22;2496;52.468;13.342;2024-03-17T08:26:54;6.40;99.90
4962;DHT22;2496;52.468;13.342;2024-03-17T08:29:21;6.70;99.90
4962;DHT22;2496;52.468;13.342;2024-03-17T08:31:48;7.10;99.90
4962;DHT22;2496;52.468;13.342;2024-03-17T08:34:15;7.30;99.90
4962;DHT22;2496;52.468;13.342;2024-03-17T08:36:42;7.40;99.90
4962;DHT22;2496;52.468;13.342;2024-03-17T08:39:09;7.50;99.90
4962;DHT22;2496;52.468;13.342;2024-03-17T08:41:37;7.60;99.90
4962;DHT22;2496;52.468;13.342;2024-03-17T08:44:05;7.70;99.90
4962;DHT22;2496;52.468;13.342;2024-03-17T08:46:32;7.80;99.90
4962;DHT22;2496;52.468;13.342;2024-03-17T08:48:59;7.90;99.90
4962;DHT22;2496;52.468;13.342;2024-03-17T08:51:26;7.60;99.90
4962;DHT22;2496;52.468;13.342;2024-03-17T08:53:54;7.30;99.90
4962;DHT22;2496;52.468;13.342;2024-03-17T08:56:22;7.10;99.90
4962;DHT22;2496;52.468;13.342;2024-03-17T08:58:49;7.00;99.90
4962;DHT22;2496;52.468;13.342;2024-03-17T09:01:18;6.80;99.90
4962;DHT22;2496;52.468;13.342;2024-03-17T09:03:46;6.60;99.90
4962;DHT22;2496;52.468;13.342;2024-03-17T09:06:15;6.60;99.90
4962;DHT22;2496;52.468;13.342;2024-03-17T09:08:42;6.80;99.90
4962;DHT22;2496;52.468;13.342;2024-03-17T09:11:12;7.10;99.90
4962;DHT22;2496;52.468;13.342;2024-03-17T09:13:40;7.20;99.90
4962;DHT22;2496;52.468;13.342;2024-03-17T09:16:07;7.20;99.90
4962;DHT22;2496;52.468;13.342;2024-03-17T09:18:38;7.30;99.90
4962;DHT22;2496;52.468;13.342;2024-03-17T09:21:06;7.20;99.90
4962;DHT22;2496;52.468;13.342;2024-03-17T09:23:34;7.10;99.90
4962;DHT22;2496;52.468;13.342;2024-03-17T09:26:04;7.10;99.90
4962;DHT22;2496;52.468;13.342;2024-03-17T09:28:32;7.20;99.90
4962;DHT22;2496;52.468;13.342;2024-03-17T09:30:59;7.10;99.90
4962;DHT22;2496;52.468;13.342;2024-03-17T09:33:27;6.90;99.90
4962;DHT22;2496;52.468;13.342;2024-03-17T09:35:57;6.90;99.90
4962;DHT22;2496;52.468;13.342;2024-03-17T09:38:25;6.90;99.90
4962;DHT22;2496;52.468;13.342;2024-03-17T09:40:53;7.10;99.90
4962;DHT22;2496;52.468;13.342;2024-03-17T09:43:23;7.20;99.90
4962;DHT22;2496;52.468;13.342;2024-03-17T09:45:51;7.20;99.90
4962;DHT22;2496;52.468;13.342;2024-03-17T09:48:20;7.30;99.90
4962;DHT22;2496;52.468;13.342;2024-03-17T09:50:50;7.20;99.90
4962;DHT22;2496;52.468;13.342;2024-03-17T09:53:24;7.20;99.90
4962;DHT22;2496;52.468;13.342;2024-03-17T09:55:52;7.20;99.90
4962;DHT22;2496;52.468;13.342;2024-03-17T09:58:20;7.20;99.90
4962;DHT22;2496;52.468;13.342;2024-03-17T10:00:47;7.20;99.90
4962;DHT22;2496;52.468;13.342;2024-03-17T10:03:40;7.20;99.90
4962;DHT22;2496;52.468;13.342;2024-03-17T10:06:08;7.20;99.90
4962;DHT22;2496;52.468;13.342;2024-03-17T10:08:42;7.10;99.90
4962;DHT22;2496;52.468;13.342;2024-03-17T10:11:11;7.10;99.90
4962;DHT22;2496;52.468;13.342;2024-03-17T10:13:39;7.10;99.90
4962;DHT22;2496;52.468;13.342;2024-03-17T10:16:06;7.20;99.90
4962;DHT22;2496;52.468;13.342;2024-03-17T10:18:33;7.20;99.90
4962;DHT22;2496;52.468;13.342;2024-03-17T10:21:00;7.30;99.90
4962;DHT22;2496;52.468;13.342;2024-03-17T10:23:27;7.50;99.90
4962;DHT22;2496;52.468;13.342;2024-03-17T10:25:56;7.60;99.90
4962;DHT22;2496;52.468;13.342;2024-03-17T10:28:23;7.60;99.90
4962;DHT22;2496;52.468;13.342;2024-03-17T10:31:00;7.50;99.90
4962;DHT22;2496;52.468;13.342;2024-03-17T10:33:27;7.50;99.90
4962;DHT22;2496;52.468;13.342;2024-03-17T10:36:01;7.50;99.90
4962;DHT22;2496;52.468;13.342;2024-03-17T10:38:28;7.50;99.90
4962;DHT22;2496;52.468;13.342;2024-03-17T10:40:57;7.70;99.90
4962;DHT22;2496;52.468;13.342;2024-03-17T10:43:24;8.00;99.90
4962;DHT22;2496;52.468;13.342;2024-03-17T10:45:52;8.20;99.90
4962;DHT22;2496;52.468;13.342;2024-03-17T10:48:21;8.30;99.90
4962;DHT22;2496;52.468;13.342;2024-03-17T10:50:53;8.40;99.90
4962;DHT22;2496;52.468;13.342;2024-03-17T10:53:22;8.40;99.90
4962;DHT22;2496;52.468;13.342;2024-03-17T10:56:02;8.50;99.90
4962;DHT22;2496;52.468;13.342;2024-03-17T10:58:34;8.70;99.90
4962;DHT22;2496;52.468;13.342;2024-03-17T11:01:04;8.90;99.90
4962;DHT22;2496;52.468;13.342;2024-03-17T11:03:34;9.10;99.90
4962;DHT22;2496;52.468;13.342;2024-03-17T11:06:03;9.10;99.90
4962;DHT22;2496;52.468;13.342;2024-03-17T11:08:31;9.10;99.90
4962;DHT22;2496;52.468;13.342;2024-03-17T11:11:01;8.70;99.90
4962;DHT22;2496;52.468;13.342;2024-03-17T11:13:30;8.50;99.90
4962;DHT22;2496;52.468;13.342;2024-03-17T11:15:58;8.40;99.90
4962;DHT22;2496;52.468;13.342;2024-03-17T11:18:37;8.20;99.90
4962;DHT22;2496;52.468;13.342;2024-03-17T11:21:06;8.10;99.90
4962;DHT22;2496;52.468;13.342;2024-03-17T11:23:41;8.00;99.90
4962;DHT22;2496;52.468;13.342;2024-03-17T11:26:10;7.90;99.90
4962;DHT22;2496;52.468;13.342;2024-03-17T11:28:51;7.70;99.90
4962;DHT22;2496;52.468;13.342;2024-03-17T11:31:49;7.60;99.90
4962;DHT22;2496;52.468;13.342;2024-03-17T11:34:37;7.70;99.90
4962;DHT22;2496;52.468;13.342;2024-03-17T11:37:05;7.80;99.90
4962;DHT22;2496;52.468;13.342;2024-03-17T11:39:54;8.10;99.90
4962;DHT22;2496;52.468;13.342;2024-03-17T11:42:27;8.40;99.90
4962;DHT22;2496;52.468;13.342;2024-03-17T11:45:02;8.60;99.90
4962;DHT22;2496;52.468;13.342;2024-03-17T11:47:39;8.90;99.90
4962;DHT22;2496;52.468;13.342;2024-03-17T11:50:07;9.20;99.80
4962;DHT22;2496;52.468;13.342;2024-03-17T11:52:37;9.30;99.40
4962;DHT22;2496;52.468;13.342;2024-03-17T11:55:04;9.50;99.10
4962;DHT22;2496;52.468;13.342;2024-03-17T11:57:32;9.50;98.70
4962;DHT22;2496;52.468;13.342;2024-03-17T11:59:58;9.50;98.80
4962;DHT22;2496;52.468;13.342;2024-03-17T12:02:26;9.40;98.90
4962;DHT22;2496;52.468;13.342;2024-03-17T12:04:53;9.20;98.90
4962;DHT22;2496;52.468;13.342;2024-03-17T12:07:21;9.00;99.10
4962;DHT22;2496;52.468;13.342;2024-03-17T12:09:49;8.80;99.50
4962;DHT22;2496;52.468;13.342;2024-03-17T12:12:18;8.60;99.30
4962;DHT22;2496;52.468;13.342;2024-03-17T12:14:46;8.40;99.20
4962;DHT22;2496;52.468;13.342;2024-03-17T12:17:14;8.30;98.50
4962;DHT22;2496;52.468;13.342;2024-03-17T12:19:41;8.10;98.50
4962;DHT22;2496;52.468;13.342;2024-03-17T12:22:15;8.10;98.60
4962;DHT22;2496;52.468;13.342;2024-03-17T12:24:43;8.20;98.20
4962;DHT22;2496;52.468;13.342;2024-03-17T12:27:17;8.30;98.30
4962;DHT22;2496;52.468;13.342;2024-03-17T12:29:46;8.40;98.30
4962;DHT22;2496;52.468;13.342;2024-03-17T12:32:15;8.30;98.30
4962;DHT22;2496;52.468;13.342;2024-03-17T12:34:44;8.30;98.40
4962;DHT22;2496;52.468;13.342;2024-03-17T12:37:16;8.10;98.30
4962;DHT22;2496;52.468;13.342;2024-03-17T12:39:43;8.10;98.10
4962;DHT22;2496;52.468;13.342;2024-03-17T12:42:11;8.00;98.20
4962;DHT22;2496;52.468;13.342;2024-03-17T12:44:40;8.00;98.40
4962;DHT22;2496;52.468;13.342;2024-03-17T12:47:14;8.10;98.10
4962;DHT22;2496;52.468;13.342;2024-03-17T12:49:48;8.20;98.10
4962;DHT22;2496;52.468;13.342;2024-03-17T12:52:20;8.40;98.00
4962;DHT22;2496;52.468;13.342;2024-03-17T12:54:56;8.60;98.10
4962;DHT22;2496;52.468;13.342;2024-03-17T12:57:43;8.60;97.80
4962;DHT22;2496;52.468;13.342;2024-03-17T13:00:28;8.50;97.80
4962;DHT22;2496;52.468;13.342;2024-03-17T13:03:00;8.50;97.90
4962;DHT22;2496;52.468;13.342;2024-03-17T13:05:28;8.50;98.00
4962;DHT22;2496;52.468;13.342;2024-03-17T13:07:58;8.50;97.90
4962;DHT22;2496;52.468;13.342;2024-03-17T13:10:26;8.50;97.90
4962;DHT22;2496;52.468;13.342;2024-03-17T13:13:00;8.50;98.00
4962;DHT22;2496;52.468;13.342;2024-03-17T13:15:28;8.40;97.70
4962;DHT22;2496;52.468;13.342;2024-03-17T13:17:56;8.40;97.70
4962;DHT22;2496;52.468;13.342;2024-03-17T13:20:26;8.50;97.60
4962;DHT22;2496;52.468;13.342;2024-03-17T13:22:53;8.60;97.20
4962;DHT22;2496;52.468;13.342;2024-03-17T13:25:21;8.70;97.20
4962;DHT22;2496;52.468;13.342;2024-03-17T13:27:49;8.90;96.90
4962;DHT22;2496;52.468;13.342;2024-03-17T13:30:18;9.00;96.70
4962;DHT22;2496;52.468;13.342;2024-03-17T13:32:47;9.10;96.30
4962;DHT22;2496;52.468;13.342;2024-03-17T13:35:17;9.10;96.30
4962;DHT22;2496;52.468;13.342;2024-03-17T13:37:47;9.10;96.50
4962;DHT22;2496;52.468;13.342;2024-03-17T13:40:16;9.10;96.90
4962;DHT22;2496;52.468;13.342;2024-03-17T13:42:44;9.00;96.60
4962;DHT22;2496;52.468;13.342;2024-03-17T13:45:12;8.90;96.30
4962;DHT22;2496;52.468;13.342;2024-03-17T13:47:39;8.90;96.30
4962;DHT22;2496;52.468;13.342;2024-03-17T13:50:07;8.80;96.30
4962;DHT22;2496;52.468;13.342;2024-03-17T13:52:38;8.90;96.10
4962;DHT22;2496;52.468;13.342;2024-03-17T13:55:13;8.90;96.10
4962;DHT22;2496;52.468;13.342;2024-03-17T13:57:43;9.00;95.90
4962;DHT22;2496;52.468;13.342;2024-03-17T14:00:11;9.10;96.00
4962;DHT22;2496;52.468;13.342;2024-03-17T14:02:41;9.30;96.00
4962;DHT22;2496;52.468;13.342;2024-03-17T14:05:12;9.40;95.60
4962;DHT22;2496;52.468;13.342;2024-03-17T14:07:39;9.60;95.70
4962;DHT22;2496;52.468;13.342;2024-03-17T14:10:09;9.60;95.50
4962;DHT22;2496;52.468;13.342;2024-03-17T14:12:37;9.70;95.50
4962;DHT22;2496;52.468;13.342;2024-03-17T14:15:05;9.80;95.50
4962;DHT22;2496;52.468;13.342;2024-03-17T14:17:33;9.90;95.30
4962;DHT22;2496;52.468;13.342;2024-03-17T14:20:00;9.80;94.90
4962;DHT22;2496;52.468;13.342;2024-03-17T14:22:28;9.70;95.10
4962;DHT22;2496;52.468;13.342;2024-03-17T14:24:54;9.60;95.30
4962;DHT22;2496;52.468;13.342;2024-03-17T14:27:23;9.40;95.60
4962;DHT22;2496;52.468;13.342;2024-03-17T14:29:53;9.30;95.80
4962;DHT22;2496;52.468;13.342;2024-03-17T14:32:22;9.30;95.80
4962;DHT22;2496;52.468;13.342;2024-03-17T14:34:49;9.20;95.60
4962;DHT22;2496;52.468;13.342;2024-03-17T14:37:16;9.10;95.60
4962;DHT22;2496;52.468;13.342;2024-03-17T14:39:43;9.10;95.60
4962;DHT22;2496;52.468;13.342;2024-03-17T14:42:10;9.00;95.60
4962;DHT22;2496;52.468;13.342;2024-03-17T14:44:39;8.90;95.80
4962;DHT22;2496;52.468;13.342;2024-03-17T14:47:06;8.90;95.90
4962;DHT22;2496;52.468;13.342;2024-03-17T14:49:33;8.90;95.90
4962;DHT22;2496;52.468;13.342;2024-03-17T14:52:00;8.90;95.90
4962;DHT22;2496;52.468;13.342;2024-03-17T14:54:28;8.80;95.80
4962;DHT22;2496;52.468;13.342;2024-03-17T14:56:54;8.80;96.00
4962;DHT22;2496;52.468;13.342;2024-03-17T14:59:21;8.80;95.90
4962;DHT22;2496;52.468;13.342;2024-03-17T15:01:50;8.80;96.00
4962;DHT22;2496;52.468;13.342;2024-03-17T15:04:17;8.80;95.90
4962;DHT22;2496;52.468;13.342;2024-03-17T15:06:44;8.80;95.90
4962;DHT22;2496;52.468;13.342;2024-03-17T15:09:12;8.80;96.10
4962;DHT22;2496;52.468;13.342;2024-03-17T15:11:39;8.90;96.20
4962;DHT22;2496;52.468;13.342;2024-03-17T15:14:06;8.90;96.10
4962;DHT22;2496;52.468;13.342;2024-03-17T15:16:37;8.90;95.90
4962;DHT22;2496;52.468;13.342;2024-03-17T15:19:06;9.00;95.80
4962;DHT22;2496;52.468;13.342;2024-03-17T15:21:33;8.90;95.50
4962;DHT22;2496;52.468;13.342;2024-03-17T15:23:59;8.90;95.60
4962;DHT22;2496;52.468;13.342;2024-03-17T15:26:28;8.90;95.60
4962;DHT22;2496;52.468;13.342;2024-03-17T15:28:56;9.00;95.70
4962;DHT22;2496;52.468;13.342;2024-03-17T15:31:29;9.00;95.90
4962;DHT22;2496;52.468;13.342;2024-03-17T15:33:56;9.10;95.70
4962;DHT22;2496;52.468;13.342;2024-03-17T15:36:25;9.10;95.60
4962;DHT22;2496;52.468;13.342;2024-03-17T15:38:53;9.00;95.80
4962;DHT22;2496;52.468;13.342;2024-03-17T15:41:19;9.00;95.90
4962;DHT22;2496;52.468;13.342;2024-03-17T15:43:46;8.90;95.80
4962;DHT22;2496;52.468;13.342;2024-03-17T15:46:15;8.80;95.90
4962;DHT22;2496;52.468;13.342;2024-03-17T15:48:43;8.70;95.80
4962;DHT22;2496;52.468;13.342;2024-03-17T15:51:11;8.70;95.60
4962;DHT22;2496;52.468;13.342;2024-03-17T15:53:39;8.60;95.60
4962;DHT22;2496;52.468;13.342;2024-03-17T15:56:06;8.60;95.70
4962;DHT22;2496;52.468;13.342;2024-03-17T15:58:34;8.60;95.90
4962;DHT22;2496;52.468;13.342;2024-03-17T16:01:05;8.60;95.70
4962;DHT22;2496;52.468;13.342;2024-03-17T16:03:34;8.60;95.80
4962;DHT22;2496;52.468;13.342;2024-03-17T16:06:04;8.60;95.80
4962;DHT22;2496;52.468;13.342;2024-03-17T16:08:36;8.50;96.00
4962;DHT22;2496;52.468;13.342;2024-03-17T16:11:06;8.50;96.20